Kisangani/Bangoka International Airport

Airport
ICAO code: 
FZIC
IATA Code: 
FKI
Summary
ICAO Region: 
AFI
Location: 
Kisangani,
Serving: 
Kisangani
Elevation: 
1417 ft
Coordinates: 
Aerial View: 
0° 29' 13.106" N, 25° 19' 57.541" E
Metar
Observation
FZIC 251100Z 00000KT 9999 BKN026 28/21 Q1016 NOSIG
Station
Bangoka International Airport
Date/Time
2022-05-25 11:00:00
Wind direction
Wind speed
00 kts
Lowest cloud amount
broken clouds
Temperature
28°C
Dew point
21°C
Humidity
65%
QNH
1016 hPa
Weather condition
n/a

International airport serving city of Kisangani, DRC.

Climatology

Tropical Monsoon climate (Köppen climate classification Am) - monthly mean temperatures above 18°C in every month of the year and features wet and dry seasons. A tropical monsoon climate typically features less pronounced dry seasons than a tropical savanna climate and sees less variance in temperatures during the course of the year. The driest month nearly always occurs at or soon after the "winter" solstice.

Runways

Designator Length Width Surface Rops
13/31 3500 45 ASP No/No
Airport map: 
Aerial View: 

SKYbrary Partners:

Safety knowledge contributed by: